Time;durP1;ratioP1;P1;durP2;ratioP2;P2;SDS_P1;SDS_P2;PMS_P1;PMS_P2;Temp;Humidity;BMP_temperature;BMP_pressure;BME280_temperature;BME280_humidity;BME280_pressure;Samples;Min_cycle;Max_cycle;Signal;HPM_P1;HPM_P2
2022/04/18 00:01:10;;;;;;;31.30;17.10;;;;;;;0.16;67.09;101039.61;87716;1284;87813;-62
2022/04/18 00:03:19;;;;;;;34.50;15.90;;;;;;;0.10;67.28;101041.64;87632;1284;95793;-68
2022/04/18 00:05:31;;;;;;;28.90;15.90;;;;;;;0.05;67.31;101039.30;87652;1284;79544;-70
2022/04/18 00:07:55;;;;;;;32.20;15.30;;;;;;;-0.02;67.14;101040.82;87794;1281;82040;-70
2022/04/18 00:10:07;;;;;;;28.90;16.10;;;;;;;-0.06;67.51;101039.55;87719;1284;99679;-69
2022/04/18 00:12:13;;;;;;;30.10;15.90;;;;;;;-0.08;67.60;101039.88;87880;1281;89513;-70
2022/04/18 00:14:22;;;;;;;28.80;15.60;;;;;;;-0.13;67.90;101040.39;87841;1281;95426;-68
2022/04/18 00:16:32;;;;;;;28.30;16.20;;;;;;;-0.16;68.03;101034.76;87767;1281;81872;-68
2022/04/18 00:18:46;;;;;;;27.00;15.30;;;;;;;-0.16;67.99;101034.42;87905;1281;79611;-68
2022/04/18 00:20:56;;;;;;;27.20;15.00;;;;;;;-0.17;68.16;101032.13;87690;1283;100106;-69
2022/04/18 00:23:02;;;;;;;29.00;16.00;;;;;;;-0.20;68.15;101030.93;87913;1281;85541;-69
2022/04/18 00:25:09;;;;;;;26.50;15.20;;;;;;;-0.22;68.47;101029.17;87873;1281;96128;-60
2022/04/18 00:27:16;;;;;;;26.30;15.30;;;;;;;-0.22;68.65;101029.70;87860;1281;76433;-60
2022/04/18 00:29:23;;;;;;;27.60;16.50;;;;;;;-0.23;68.25;101027.45;87946;1281;81525;-60
2022/04/18 00:31:30;;;;;;;27.20;15.60;;;;;;;-0.24;68.36;101025.02;87903;1281;99084;-60
2022/04/18 00:33:38;;;;;;;29.50;15.70;;;;;;;-0.24;68.23;101026.46;87915;1281;89010;-60
2022/04/18 00:35:50;;;;;;;27.90;16.40;;;;;;;-0.28;68.35;101027.82;87896;1281;94128;-60
2022/04/18 00:37:57;;;;;;;33.50;16.30;;;;;;;-0.29;68.07;101027.68;87875;1281;79503;-68
2022/04/18 00:40:13;;;;;;;30.30;15.90;;;;;;;-0.32;68.22;101024.19;87865;1282;80794;-69
2022/04/18 00:42:23;;;;;;;29.20;15.30;;;;;;;-0.36;68.38;101021.10;87828;1281;98723;-60
2022/04/18 00:44:43;;;;;;;27.40;15.20;;;;;;;-0.39;68.29;101021.84;87758;1281;88168;-61
2022/04/18 00:46:54;;;;;;;27.00;14.00;;;;;;;-0.44;68.54;101021.67;87847;1281;93150;-61
2022/04/18 00:49:01;;;;;;;25.90;13.50;;;;;;;-0.43;68.43;101016.27;87885;1282;78502;-68
2022/04/18 00:51:11;;;;;;;27.80;14.70;;;;;;;-0.42;68.58;101019.41;87881;1281;79760;-69
2022/04/18 00:53:18;;;;;;;28.50;14.90;;;;;;;-0.43;68.80;101013.10;87807;1281;99353;-70
2022/04/18 00:55:28;;;;;;;29.80;14.60;;;;;;;-0.42;68.71;101009.70;87859;1281;87910;-70
2022/04/18 00:57:44;;;;;;;24.90;13.30;;;;;;;-0.41;68.72;101007.48;87839;1281;95414;-70
2022/04/18 00:59:53;;;;;;;24.70;14.20;;;;;;;-0.37;68.83;101007.38;87882;1281;80407;-59
2022/04/18 01:02:02;;;;;;;30.80;15.00;;;;;;;-0.39;68.92;101007.48;87889;1281;79959;-61
2022/04/18 01:04:08;;;;;;;25.50;15.50;;;;;;;-0.37;68.96;101005.45;87762;1284;100935;-62
2022/04/18 01:06:22;;;;;;;27.70;15.10;;;;;;;-0.37;69.11;101007.91;87658;1284;89481;-60
2022/04/18 01:08:34;;;;;;;23.60;13.80;;;;;;;-0.39;69.03;101008.21;87725;1284;94269;-61
2022/04/18 01:10:42;;;;;;;28.00;14.40;;;;;;;-0.37;68.99;101003.15;87726;1284;79782;-61
2022/04/18 01:12:54;;;;;;;18.90;11.80;;;;;;;-0.27;68.85;101003.69;87739;1284;81617;-61
2022/04/18 01:15:00;;;;;;;24.30;12.00;;;;;;;-0.15;68.70;101002.43;87746;1284;98255;-70
2022/04/18 01:17:06;;;;;;;21.50;11.70;;;;;;;-0.09;68.50;100999.20;87728;1284;87777;-70
2022/04/18 01:19:15;;;;;;;21.90;11.20;;;;;;;-0.05;68.45;101002.14;87731;1284;95251;-69
2022/04/18 01:21:26;;;;;;;20.80;11.20;;;;;;;-0.02;68.31;101001.02;87763;1283;76761;-70
2022/04/18 01:23:33;;;;;;;18.60;10.30;;;;;;;0.04;68.36;100996.20;87765;1284;82459;-69
2022/04/18 01:30:47;;;;;;;15.00;8.20;;;;;;;0.16;68.05;100991.59;87560;1284;94135;-60
2022/04/18 01:32:57;;;;;;;16.40;9.00;;;;;;;0.21;68.01;100990.69;87588;1283;83196;-61
2022/04/18 01:35:08;;;;;;;16.20;9.00;;;;;;;0.26;68.15;100991.38;87669;1284;83143;-60
2022/04/18 01:37:18;;;;;;;16.30;9.10;;;;;;;0.32;68.27;100990.58;87913;1281;98197;-62
2022/04/18 01:39:28;;;;;;;14.60;8.60;;;;;;;0.35;68.47;100989.88;87935;1281;87666;-60
2022/04/18 01:41:44;;;;;;;15.10;9.20;;;;;;;0.40;68.00;100988.58;87907;1280;95759;-60
2022/04/18 01:43:56;;;;;;;13.10;8.90;;;;;;;0.47;68.06;100985.59;87866;1281;77379;-61
2022/04/18 01:46:03;;;;;;;11.50;6.60;;;;;;;0.55;67.65;100983.45;87891;1281;81991;-60
2022/04/18 01:48:17;;;;;;;13.80;8.00;;;;;;;0.63;67.34;100983.20;87649;1284;98328;-61
2022/04/18 01:50:35;;;;;;;11.80;6.50;;;;;;;0.69;67.24;100979.45;87419;1284;86866;-69
2022/04/18 02:01:00;;;;;;;9.60;5.80;;;;;;;0.86;66.23;100965.92;87254;1287;81592;-70
2022/04/18 02:03:06;;;;;;;9.90;6.30;;;;;;;0.88;66.03;100966.85;87293;1287;100422;-70
2022/04/18 02:05:12;;;;;;;10.10;6.30;;;;;;;0.90;65.85;100961.52;87377;1284;88697;-61
2022/04/18 02:07:19;;;;;;;8.30;5.60;;;;;;;0.92;65.64;100958.73;87587;1284;95608;-60
2022/04/18 02:09:25;;;;;;;9.70;6.00;;;;;;;0.94;65.47;100958.02;87714;1284;78072;-70
2022/04/18 02:11:51;;;;;;;11.40;5.90;;;;;;;0.95;65.27;100955.81;87786;1284;82045;-72
2022/04/18 02:14:55;;;;;;;10.60;5.90;;;;;;;0.95;65.45;100951.00;87483;1283;99305;-70
2022/04/18 02:22:02;;;;;;;9.00;6.00;;;;;;;0.97;65.23;100945.22;87650;1284;94898;-67
2022/04/18 02:24:49;;;;;;;10.40;6.60;;;;;;;0.92;65.61;100946.09;87761;1283;77589;-63
2022/04/18 02:27:19;;;;;;;11.60;6.80;;;;;;;0.91;65.48;100944.59;87489;1284;82142;-59
2022/04/18 02:29:52;;;;;;;11.60;7.10;;;;;;;0.90;65.55;100938.45;87742;1285;100991;-68
2022/04/18 02:34:47;;;;;;;12.10;6.80;;;;;;;0.83;66.03;100939.21;87684;1284;93677;-60
2022/04/18 02:37:10;;;;;;;14.30;7.40;;;;;;;0.83;66.09;100937.06;87729;1284;79669;-61
2022/04/18 02:39:28;;;;;;;;;;;;;;;0.80;66.24;100939.73;87752;1284;80347;-69
2022/04/18 02:41:49;;;;;;;13.90;8.40;;;;;;;0.80;66.49;100940.65;87770;1285;98748;-70
2022/04/18 02:44:01;;;;;;;15.70;8.60;;;;;;;0.78;66.38;100938.13;87723;1282;86821;-68
2022/04/18 02:46:17;;;;;;;15.70;8.80;;;;;;;0.75;66.65;100938.73;87647;1282;94199;-69
2022/04/18 02:48:37;;;;;;;18.20;9.70;;;;;;;0.72;66.52;100934.34;87683;1284;77798;-59
2022/04/18 02:50:50;;;;;;;17.40;9.20;;;;;;;0.68;66.80;100936.05;87746;1284;81375;-60
2022/04/18 02:52:57;;;;;;;16.30;9.30;;;;;;;0.63;66.39;100935.20;87788;1282;98598;-68
2022/04/18 02:55:20;;;;;;;16.60;9.40;;;;;;;0.54;66.38;100931.23;87886;1281;88769;-60
2022/04/18 02:57:40;;;;;;;16.20;9.40;;;;;;;0.45;66.56;100938.61;87622;1284;95686;-68
2022/04/18 02:59:55;;;;;;;20.00;9.10;;;;;;;0.33;66.66;100938.31;87793;1282;78888;-60
2022/04/18 03:02:03;;;;;;;18.60;9.10;;;;;;;0.22;66.64;100944.02;87850;1281;81702;-69
2022/04/18 03:08:42;;;;;;;13.30;7.70;;;;;;;0.13;66.69;100939.44;87666;1283;88003;-61
2022/04/18 03:11:05;;;;;;;13.00;8.20;;;;;;;0.08;66.61;100941.51;87435;1284;94333;-60
2022/04/18 03:13:14;;;;;;;13.00;7.40;;;;;;;0.07;66.65;100940.16;87459;1284;79706;-60
2022/04/18 03:15:20;;;;;;;15.80;8.60;;;;;;;0.05;66.61;100941.38;87812;1282;81699;-69
2022/04/18 03:17:26;;;;;;;14.60;8.30;;;;;;;0.03;66.66;100941.02;87833;1281;99678;-69
2022/04/18 03:19:32;;;;;;;15.00;7.70;;;;;;;0.01;66.66;100939.20;87836;1281;88323;-70
2022/04/18 03:21:38;;;;;;;11.90;7.20;;;;;;;0.02;66.54;100936.33;87625;1281;320621;-69
2022/04/18 03:23:48;;;;;;;12.30;6.70;;;;;;;0.05;66.65;100934.13;87754;1285;78916;-68
2022/04/18 03:25:57;;;;;;;12.00;6.80;;;;;;;0.09;66.78;100935.93;87881;1281;82673;-60
2022/04/18 03:28:03;;;;;;;10.80;6.10;;;;;;;0.14;66.61;100935.24;87904;1281;99637;-61
2022/04/18 03:30:15;;;;;;;10.30;6.10;;;;;;;0.19;66.54;100928.88;87972;1281;89357;-68
2022/04/18 03:40:57;;;;;;;10.20;6.60;;;;;;;0.12;66.88;100934.50;88132;1276;100390;-70
2022/04/18 03:43:04;;;;;;;11.30;7.00;;;;;;;0.09;66.84;100935.27;88176;1277;87621;-70
2022/04/18 03:45:12;;;;;;;10.00;6.70;;;;;;;0.04;66.83;100935.48;88163;1277;94607;-71
2022/04/18 03:47:19;;;;;;;10.20;6.50;;;;;;;-0.00;66.92;100935.58;88145;1276;78303;-71
2022/04/18 03:49:25;;;;;;;10.70;6.60;;;;;;;0.00;66.98;100935.37;88116;1276;82413;-71
2022/04/18 03:51:32;;;;;;;11.80;6.60;;;;;;;0.01;66.84;100934.59;88188;1276;98665;-72
2022/04/18 03:53:38;;;;;;;14.90;7.50;;;;;;;0.01;66.92;100935.51;88089;1276;87913;-71
2022/04/18 03:55:45;;;;;;;11.50;6.70;;;;;;;-0.03;66.94;100936.25;88103;1276;94139;-70
2022/04/18 03:57:52;;;;;;;14.20;7.40;;;;;;;-0.04;66.75;100933.16;88163;1276;78724;-69
2022/04/18 03:59:58;;;;;;;10.90;6.70;;;;;;;-0.03;66.89;100934.71;88110;1276;82940;-70
2022/04/18 04:02:20;;;;;;;12.20;6.60;;;;;;;-0.01;66.80;100930.61;88080;1276;98125;-60
2022/04/18 04:08:57;;;;;;;11.80;6.40;;;;;;;0.20;66.96;100931.97;87992;1280;93423;-73
2022/04/18 04:11:18;;;;;;;9.30;5.80;;;;;;;0.36;67.00;100932.01;88143;1277;79124;-61
2022/04/18 04:13:26;;;;;;;9.80;5.70;;;;;;;0.65;67.25;100928.98;88186;1277;82394;-61
2022/04/18 04:18:05;;;;;;;11.80;6.70;;;;;;;1.59;66.78;100927.24;88412;1268;84034;-60
2022/04/18 04:20:15;;;;;;;11.10;6.10;;;;;;;2.35;66.62;100929.86;88023;1279;93983;-61
2022/04/18 04:22:20;;;;;;;11.20;6.30;;;;;;;3.31;65.72;100927.71;88028;1279;79012;-71
2022/04/18 04:24:28;;;;;;;10.00;6.00;;;;;;;4.07;64.60;100927.45;88067;1279;80414;-72
2022/04/18 04:26:34;;;;;;;11.50;6.10;;;;;;;4.93;63.88;100920.17;88041;1279;100221;-71
2022/04/18 04:28:43;;;;;;;11.00;6.40;;;;;;;5.73;62.62;100920.46;88042;1279;89392;-71
2022/04/18 04:30:53;;;;;;;12.60;6.30;;;;;;;6.98;61.80;100918.34;87998;1279;94961;-71
2022/04/18 04:32:59;;;;;;;7.90;5.80;;;;;;;8.23;60.33;100918.55;88012;1279;77457;-61
2022/04/18 04:35:06;;;;;;;10.90;5.70;;;;;;;9.30;58.48;100913.50;88078;1279;81183;-60
2022/04/18 04:37:15;;;;;;;9.60;6.30;;;;;;;10.37;57.60;100909.77;88037;1279;100223;-60
2022/04/18 04:39:26;;;;;;;9.20;5.80;;;;;;;11.20;55.37;100907.39;87967;1280;88875;-60
2022/04/18 04:41:32;;;;;;;10.10;6.70;;;;;;;11.91;54.32;100913.46;88038;1279;95270;-60
2022/04/18 04:43:38;;;;;;;9.90;6.50;;;;;;;12.62;52.78;100911.46;88008;1279;79621;-60
2022/04/18 04:45:43;;;;;;;11.10;7.10;;;;;;;13.13;52.09;100904.15;88034;1279;81610;-61
2022/04/18 04:47:49;;;;;;;9.10;6.40;;;;;;;13.91;50.78;100909.29;88037;1279;99919;-71
2022/04/18 04:49:55;;;;;;;8.90;6.10;;;;;;;14.25;48.90;100913.15;88040;1279;87730;-70
2022/04/18 04:52:01;;;;;;;8.50;5.90;;;;;;;14.44;48.17;100917.27;88045;1279;95685;-69
2022/04/18 04:58:09;;;;;;;8.50;5.80;;;;;;;15.60;44.95;100917.05;87684;1282;82188;-60
2022/04/18 05:00:24;;;;;;;8.70;6.40;;;;;;;16.15;44.41;100916.11;87535;1285;97801;-60
2022/04/18 05:10:25;;;;;;;19.20;10.20;;;;;;;16.32;40.51;100919.42;86861;1290;82184;-61
2022/04/18 05:13:54;;;;;;;20.50;12.70;;;;;;;16.54;39.61;100916.31;87446;1285;82179;-61
2022/04/18 05:17:23;;;;;;;19.20;12.50;;;;;;;16.32;38.33;100916.39;87512;1285;98502;-70
2022/04/18 05:19:58;;;;;;;19.40;12.60;;;;;;;16.71;37.79;100914.45;87544;1284;86553;-71
2022/04/18 05:22:45;;;;;;;;;;;;;;;;;;;;;
2022/04/18 05:25:14;;;;;;;18.30;11.90;;;;;;;18.05;35.78;100912.29;87548;1284;79368;-71
2022/04/18 05:27:26;;;;;;;17.60;11.90;;;;;;;18.63;34.44;100915.91;87544;1285;82120;-72
2022/04/18 05:29:37;;;;;;;15.50;10.20;;;;;;;18.92;34.36;100913.02;87504;1285;98703;-72
2022/04/18 05:31:52;;;;;;;11.50;7.60;;;;;;;19.51;33.67;100914.09;87573;1283;88511;-61
2022/04/18 05:34:05;;;;;;;9.60;7.50;;;;;;;19.44;32.21;100908.11;87334;1287;94991;-59
2022/04/18 05:36:19;;;;;;;16.10;10.40;;;;;;;19.84;31.78;100911.84;87554;1284;80715;-61
2022/04/18 05:38:34;;;;;;;11.50;8.00;;;;;;;19.83;31.54;100908.10;87573;1284;81164;-71
2022/04/18 05:40:49;;;;;;;15.80;10.60;;;;;;;20.20;31.04;100909.31;87542;1284;96707;-70
2022/04/18 05:43:11;;;;;;;11.30;8.00;;;;;;;20.63;30.68;100903.63;87579;1284;89437;-71
2022/04/18 05:45:29;;;;;;;9.80;7.30;;;;;;;21.28;30.21;100901.30;87557;1284;93246;-60
2022/04/18 05:47:45;;;;;;;10.40;7.30;;;;;;;21.72;29.66;100895.75;87510;1285;77854;-71
2022/04/18 05:50:23;;;;;;;12.70;8.80;;;;;;;21.75;29.90;100893.27;87540;1284;80543;-68
2022/04/18 05:52:45;;;;;;;11.30;9.30;;;;;;;21.98;29.40;100895.35;87552;1284;99062;-60
2022/04/18 05:55:15;;;;;;;11.90;8.10;;;;;;;22.49;28.33;100895.31;87570;1284;87761;-69
2022/04/18 05:57:36;;;;;;;11.40;7.20;;;;;;;22.59;28.46;100895.84;87783;1282;95757;-60
2022/04/18 05:59:50;;;;;;;11.30;7.70;;;;;;;22.76;28.15;100899.16;87868;1281;78907;-68
2022/04/18 06:02:09;;;;;;;9.60;7.50;;;;;;;22.85;28.30;100896.13;87858;1281;83601;-61
2022/04/18 06:05:10;;;;;;;11.60;7.80;;;;;;;23.19;28.29;100890.77;88037;1281;97536;-70
2022/04/18 06:07:50;;;;;;;11.50;8.20;;;;;;;23.42;27.27;100889.95;88024;1280;88937;-70
2022/04/18 06:10:40;;;;;;;8.20;7.00;;;;;;;23.21;26.91;100891.39;87980;1281;93167;-64
2022/04/18 06:13:20;;;;;;;12.00;8.10;;;;;;;23.80;27.05;100892.27;87960;1281;79295;-72
2022/04/18 06:15:48;;;;;;;14.90;9.80;;;;;;;24.49;26.51;100894.30;87836;1282;81225;-70
2022/04/18 06:18:08;;;;;;;15.50;9.70;;;;;;;24.39;25.04;100892.52;87739;1284;100023;-69
2022/04/18 06:20:15;;;;;;;13.00;8.90;;;;;;;24.15;25.51;100886.98;87946;1281;87586;-69
2022/04/18 06:22:25;;;;;;;11.80;7.90;;;;;;;24.53;24.62;100891.05;88007;1281;94156;-60
2022/04/18 06:24:32;;;;;;;12.30;8.00;;;;;;;24.71;25.03;100893.61;87703;1285;78208;-62
2022/04/18 06:26:49;;;;;;;9.40;6.50;;;;;;;25.19;24.90;100890.85;87876;1282;81802;-63
2022/04/18 06:29:03;;;;;;;9.40;5.80;;;;;;;25.57;24.63;100884.34;87847;1282;97609;-61
2022/04/18 06:31:14;;;;;;;8.70;6.70;;;;;;;26.11;23.89;100884.80;87987;1279;86878;-70
2022/04/18 06:33:28;;;;;;;9.20;6.10;;;;;;;25.81;23.65;100885.16;88008;1281;96153;-61
2022/04/18 06:35:38;;;;;;;8.20;5.70;;;;;;;25.61;23.81;100883.18;87985;1281;79614;-62
2022/04/18 06:37:48;;;;;;;5.70;4.80;;;;;;;25.63;22.27;100886.17;87965;1281;82198;-61
2022/04/18 06:39:55;;;;;;;6.10;4.30;;;;;;;25.75;22.55;100887.77;88004;1281;99783;-61
2022/04/18 06:42:09;;;;;;;4.30;3.70;;;;;;;25.94;23.12;100887.98;88002;1281;87624;-61
2022/04/18 06:44:18;;;;;;;4.00;3.00;;;;;;;26.30;22.52;100886.34;87955;1281;93939;-60
2022/04/18 06:46:27;;;;;;;4.20;3.30;;;;;;;26.55;22.32;100888.74;87469;1285;79734;-68
2022/04/18 06:48:37;;;;;;;3.90;3.50;;;;;;;26.60;22.21;100887.10;87893;1281;82345;-69
2022/04/18 06:50:48;;;;;;;4.20;3.00;;;;;;;26.49;22.05;100887.72;88000;1281;98611;-69
2022/04/18 06:52:55;;;;;;;4.50;3.00;;;;;;;26.51;21.57;100885.05;87903;1281;87660;-69
2022/04/18 06:55:06;;;;;;;5.60;3.00;;;;;;;26.94;20.98;100886.96;87977;1281;95834;-70
2022/04/18 06:57:16;;;;;;;5.10;3.20;;;;;;;26.77;20.56;100888.89;88015;1279;80557;-63
2022/04/18 06:59:23;;;;;;;8.60;6.60;;;;;;;26.88;20.45;100885.55;88028;1279;83099;-61
2022/04/18 07:01:33;;;;;;;6.40;5.30;;;;;;;27.20;19.42;100886.21;88013;1279;97564;-61
2022/04/18 07:03:41;;;;;;;4.40;3.30;;;;;;;27.30;19.90;100885.53;88023;1279;89544;-70
2022/04/18 07:05:52;;;;;;;4.90;4.30;;;;;;;27.46;19.22;100886.15;88039;1279;94751;-69
2022/04/18 07:08:10;;;;;;;5.20;3.50;;;;;;;27.25;19.07;100884.07;88021;1279;78787;-70
2022/04/18 07:10:22;;;;;;;15.50;14.00;;;;;;;27.36;19.35;100886.05;88001;1279;80668;-70
2022/04/18 07:12:28;;;;;;;8.90;7.60;;;;;;;27.60;18.72;100883.55;87855;1281;98312;-69
2022/04/18 07:14:42;;;;;;;6.00;4.50;;;;;;;27.17;18.99;100881.41;87997;1281;89296;-69
2022/04/18 07:16:53;;;;;;;3.70;2.90;;;;;;;27.24;19.12;100879.76;87954;1281;95617;-62
2022/04/18 07:19:06;;;;;;;5.10;4.20;;;;;;;27.54;19.67;100874.39;88000;1281;78234;-61
2022/04/18 07:21:21;;;;;;;3.90;3.10;;;;;;;28.21;19.33;100874.20;88003;1281;82445;-70
2022/04/18 07:23:34;;;;;;;4.60;4.10;;;;;;;28.42;17.35;100868.59;87830;1282;101081;-71
2022/04/18 07:26:10;;;;;;;4.70;3.90;;;;;;;28.16;18.36;100867.23;87855;1281;88855;-62
2022/04/18 07:28:39;;;;;;;5.70;5.20;;;;;;;28.43;18.07;100865.08;87824;1281;93979;-62
2022/04/18 07:30:51;;;;;;;3.20;2.30;;;;;;;28.79;17.23;100866.71;88011;1279;78550;-73
2022/04/18 07:33:17;;;;;;;;;;;;;;;28.13;17.09;100865.59;88057;1279;83040;-62
2022/04/18 07:35:41;;;;;;;3.30;2.40;;;;;;;27.69;15.86;100866.40;87868;1281;97699;-63
2022/04/18 07:40:12;;;;;;;3.10;2.10;;;;;;;27.26;16.59;100862.87;88003;1279;94521;-74
2022/04/18 07:42:39;;;;;;;3.10;2.60;;;;;;;26.85;16.88;100867.89;87973;1281;77931;-70
2022/04/18 07:45:16;;;;;;;2.80;2.10;;;;;;;25.99;15.89;100866.48;87984;1279;81786;-65
2022/04/18 07:47:32;;;;;;;4.60;4.20;;;;;;;25.81;16.59;100860.30;87896;1281;98444;-61
2022/04/18 07:49:45;;;;;;;2.70;2.00;;;;;;;25.81;16.58;100862.58;88065;1279;86554;-69
2022/04/18 07:52:11;;;;;;;;;;;;;;;;;;;;;
2022/04/18 07:54:28;;;;;;;2.60;1.50;;;;;;;25.47;16.09;100860.96;88014;1279;77309;-69
2022/04/18 07:56:43;;;;;;;2.50;1.90;;;;;;;24.67;15.90;100866.85;88024;1281;81957;-68
2022/04/18 07:58:57;;;;;;;6.40;3.00;;;;;;;24.34;16.00;100858.69;88040;1279;100517;-63
2022/04/18 08:01:20;;;;;;;3.10;1.60;;;;;;;23.76;16.36;100867.02;88026;1279;87851;-61
2022/04/18 08:03:44;;;;;;;3.50;1.40;;;;;;;24.28;17.02;100856.63;87874;1281;94902;-62
2022/04/18 08:05:56;;;;;;;3.50;2.00;;;;;;;24.93;16.81;100851.04;88020;1280;79052;-63
2022/04/18 08:08:07;;;;;;;5.60;3.00;;;;;;;25.18;16.81;100849.81;88014;1279;81971;-69
2022/04/18 08:10:15;;;;;;;4.00;2.70;;;;;;;25.24;16.25;100846.84;87991;1281;98213;-71
2022/04/18 08:12:23;;;;;;;4.90;3.10;;;;;;;25.24;16.19;100846.34;88010;1279;89106;-71
2022/04/18 08:14:30;;;;;;;3.30;2.30;;;;;;;25.23;16.41;100849.16;88003;1280;94160;-70
2022/04/18 08:16:37;;;;;;;2.90;2.30;;;;;;;25.42;16.39;100840.27;88009;1280;76914;-67
2022/04/18 08:18:47;;;;;;;2.20;1.40;;;;;;;25.33;15.51;100839.92;88027;1280;81123;-61
2022/04/18 08:20:56;;;;;;;2.40;1.20;;;;;;;25.19;15.83;100842.79;88024;1280;98156;-59
2022/04/18 08:23:06;;;;;;;1.70;1.40;;;;;;;25.17;16.55;100846.05;87862;1281;88750;-69
2022/04/18 08:25:14;;;;;;;2.60;1.60;;;;;;;25.24;16.70;100840.91;88028;1279;94923;-71
2022/04/18 08:27:25;;;;;;;2.20;1.30;;;;;;;25.06;16.81;100835.04;88011;1280;80596;-62
2022/04/18 08:29:35;;;;;;;2.70;1.70;;;;;;;25.43;16.49;100837.01;87858;1281;81668;-63
2022/04/18 08:31:47;;;;;;;2.20;1.10;;;;;;;25.41;16.28;100840.83;87816;1282;99993;-62
2022/04/18 08:33:57;;;;;;;3.30;1.50;;;;;;;25.11;16.32;100839.02;88034;1279;88091;-60
2022/04/18 08:36:04;;;;;;;1.50;1.10;;;;;;;25.05;16.45;100838.63;88013;1279;95940;-60
2022/04/18 08:38:11;;;;;;;1.60;0.90;;;;;;;24.93;16.42;100833.40;88027;1279;79629;-72
2022/04/18 08:40:18;;;;;;;3.00;1.50;;;;;;;24.59;16.95;100830.02;88064;1280;83160;-69
2022/04/18 08:42:26;;;;;;;2.10;1.20;;;;;;;24.78;16.95;100835.18;87864;1281;99554;-62
2022/04/18 08:44:36;;;;;;;2.80;1.20;;;;;;;24.34;16.77;100835.33;88001;1281;88403;-61
2022/04/18 08:46:48;;;;;;;2.00;1.20;;;;;;;24.33;16.84;100832.39;87985;1280;95899;-64
2022/04/18 08:53:52;;;;;;;1.60;1.20;;;;;;;24.14;16.62;100817.99;88006;1280;99322;-71
2022/04/18 08:56:03;;;;;;;2.20;1.10;;;;;;;23.85;16.94;100818.25;88031;1281;86444;-70
2022/04/18 08:58:16;;;;;;;2.60;0.90;;;;;;;24.04;16.99;100823.02;88016;1280;94592;-68
2022/04/18 09:00:27;;;;;;;2.00;1.30;;;;;;;24.45;17.11;100818.75;88020;1279;80144;-69
2022/04/18 09:02:33;;;;;;;1.60;0.80;;;;;;;24.64;16.33;100816.11;88058;1280;82630;-61
2022/04/18 09:04:41;;;;;;;2.00;1.00;;;;;;;24.24;16.71;100814.08;88032;1280;97860;-62
2022/04/18 09:06:47;;;;;;;6.10;1.20;;;;;;;24.15;16.82;100809.89;88036;1279;89605;-68
2022/04/18 09:08:59;;;;;;;1.60;1.00;;;;;;;23.91;16.28;100805.38;88024;1279;94244;-69
2022/04/18 09:11:05;;;;;;;1.50;1.00;;;;;;;23.57;16.38;100795.45;87988;1280;78712;-69
2022/04/18 09:13:14;;;;;;;2.50;1.30;;;;;;;23.50;16.35;100796.64;88061;1280;81121;-71
2022/04/18 09:15:31;;;;;;;1.90;1.20;;;;;;;22.36;16.63;100793.73;88025;1281;99611;-69
2022/04/18 09:17:38;;;;;;;1.60;1.30;;;;;;;21.82;16.38;100796.45;88008;1281;87441;-66
2022/04/18 09:19:44;;;;;;;2.40;1.10;;;;;;;21.56;17.04;100789.23;87952;1281;93806;-68
2022/04/18 09:22:01;;;;;;;2.20;1.30;;;;;;;21.37;17.53;100791.80;87991;1281;78060;-61
2022/04/18 09:24:57;;;;;;;2.10;1.00;;;;;;;21.14;17.63;100790.09;88041;1281;83432;-60
2022/04/18 09:27:33;;;;;;;2.50;0.90;;;;;;;20.72;17.93;100787.15;88034;1280;100446;-69
2022/04/18 09:33:01;;;;;;;1.40;0.80;;;;;;;19.35;18.57;100782.09;87962;1281;92895;-62
2022/04/18 09:35:09;;;;;;;1.80;1.00;;;;;;;18.92;19.01;100776.48;87896;1281;78193;-60
2022/04/18 09:38:11;;;;;;;3.20;1.20;;;;;;;18.67;19.61;100776.70;88011;1281;81284;-73
2022/04/18 09:41:32;;;;;;;1.40;1.00;;;;;;;18.00;19.65;100765.38;88006;1281;96625;-70
2022/04/18 09:45:18;;;;;;;2.10;1.20;;;;;;;17.18;19.83;100758.39;87911;1281;88443;-70
2022/04/18 09:48:58;;;;;;;1.70;0.80;;;;;;;16.66;20.64;100754.27;87864;1281;94174;-64
2022/04/18 09:51:29;;;;;;;2.10;1.00;;;;;;;16.79;20.98;100749.04;87796;1281;79732;-64
2022/04/18 09:53:59;;;;;;;3.00;1.10;;;;;;;16.51;21.28;100743.69;87994;1280;82744;-70
2022/04/18 09:59:51;;;;;;;1.60;0.90;;;;;;;16.37;21.68;100735.20;87897;1281;87791;-69
2022/04/18 10:02:02;;;;;;;2.10;1.00;;;;;;;16.33;21.58;100735.69;87982;1280;94580;-72
2022/04/18 10:05:07;;;;;;;1.50;0.90;;;;;;;16.00;22.19;100732.08;87973;1281;80289;-71
2022/04/18 10:08:04;;;;;;;2.40;1.00;;;;;;;15.55;21.80;100733.41;87918;1281;80985;-62
2022/04/18 10:13:50;;;;;;;2.70;1.20;;;;;;;15.64;21.65;100727.11;87936;1281;89632;-69
2022/04/18 10:15:58;;;;;;;2.00;1.10;;;;;;;15.27;21.43;100723.88;87854;1281;95098;-71
2022/04/18 10:18:08;;;;;;;2.90;1.30;;;;;;;14.76;21.93;100719.73;87855;1281;79346;-62
2022/04/18 10:20:33;;;;;;;3.50;1.90;;;;;;;14.70;21.99;100718.23;87958;1279;82949;-61
2022/04/18 10:23:21;;;;;;;2.50;1.30;;;;;;;14.64;22.42;100720.40;88002;1281;100325;-70
2022/04/18 10:25:49;;;;;;;1.70;0.90;;;;;;;14.41;22.60;100705.14;87395;1287;87614;-69
2022/04/18 10:28:09;;;;;;;1.80;0.90;;;;;;;14.59;23.04;100709.31;87831;1281;92978;-67
2022/04/18 10:30:16;;;;;;;1.50;1.00;;;;;;;14.73;23.00;100705.42;87984;1279;78693;-68
2022/04/18 10:32:28;;;;;;;3.60;1.10;;;;;;;14.92;22.64;100702.90;88044;1280;83494;-69
2022/04/18 10:34:35;;;;;;;1.80;0.90;;;;;;;14.76;22.75;100700.27;88021;1281;99973;-61
2022/04/18 10:36:53;;;;;;;2.10;1.00;;;;;;;14.57;22.91;100697.89;88049;1281;88078;-67
2022/04/18 10:39:06;;;;;;;1.90;1.10;;;;;;;14.21;22.93;100699.71;87859;1280;95417;-67
2022/04/18 10:41:37;;;;;;;2.70;0.90;;;;;;;13.95;22.69;100696.63;87951;1281;78553;-68
2022/04/18 10:44:10;;;;;;;2.00;1.00;;;;;;;13.88;22.98;100687.09;87928;1281;82427;-69
2022/04/18 10:46:23;;;;;;;1.20;0.90;;;;;;;14.12;23.15;100688.20;87566;1281;98907;-60
2022/04/18 10:48:39;;;;;;;5.10;1.60;;;;;;;14.27;23.25;100682.52;87978;1281;88440;-71
2022/04/18 10:50:47;;;;;;;2.80;1.00;;;;;;;14.40;23.37;100689.50;87834;1281;93960;-66
2022/04/18 10:53:19;;;;;;;2.80;1.20;;;;;;;14.21;23.22;100687.05;87980;1281;80306;-67
2022/04/18 10:55:25;;;;;;;1.80;1.00;;;;;;;13.83;23.15;100682.34;88006;1281;83408;-67
2022/04/18 10:57:34;;;;;;;1.70;0.80;;;;;;;13.69;23.52;100689.13;87982;1281;99645;-67
2022/04/18 10:59:45;;;;;;;2.20;1.10;;;;;;;13.74;23.53;100688.15;87970;1281;87708;-66
2022/04/18 11:01:53;;;;;;;1.80;0.90;;;;;;;13.77;23.29;100679.90;87963;1281;94904;-65
2022/04/18 11:04:01;;;;;;;2.50;1.10;;;;;;;13.84;23.25;100675.70;87958;1281;78942;-60
2022/04/18 11:06:11;;;;;;;3.20;1.10;;;;;;;13.83;23.35;100675.08;87990;1281;81182;-58
2022/04/18 11:08:29;;;;;;;3.20;1.10;;;;;;;13.99;23.64;100664.30;88007;1281;100362;-62
2022/04/18 11:10:45;;;;;;;1.80;1.00;;;;;;;14.10;23.78;100660.90;88006;1281;88781;-60
2022/04/18 11:13:01;;;;;;;2.70;1.40;;;;;;;14.29;23.83;100665.87;87991;1281;94907;-66
2022/04/18 11:15:10;;;;;;;2.90;1.20;;;;;;;14.32;23.85;100673.46;88012;1281;78407;-67
2022/04/18 11:17:34;;;;;;;1.70;1.10;;;;;;;14.20;23.56;100668.41;87988;1280;82837;-68
2022/04/18 11:19:41;;;;;;;4.60;1.40;;;;;;;14.13;23.55;100659.73;87990;1281;99817;-67
2022/04/18 11:22:20;;;;;;;1.70;1.10;;;;;;;13.73;23.51;100656.15;87764;1281;374761;-68
2022/04/18 11:24:39;;;;;;;2.40;1.20;;;;;;;13.74;24.49;100654.11;87983;1279;94300;-68
2022/04/18 11:26:47;;;;;;;2.00;1.20;;;;;;;13.82;24.28;100650.34;88030;1280;80081;-63
2022/04/18 11:28:54;;;;;;;3.10;1.70;;;;;;;13.69;24.08;100648.41;88006;1281;82784;-62
2022/04/18 11:31:01;;;;;;;2.40;1.50;;;;;;;13.65;24.13;100659.67;87996;1280;98849;-60
2022/04/18 11:33:09;;;;;;;3.00;2.10;;;;;;;13.49;24.00;100658.27;88011;1281;86803;-70
2022/04/18 11:35:16;;;;;;;3.80;2.10;;;;;;;13.27;24.44;100649.67;88014;1280;94335;-69
2022/04/18 11:37:31;;;;;;;3.70;2.20;;;;;;;13.34;24.61;100643.88;88042;1281;80066;-70
2022/04/18 11:39:46;;;;;;;3.10;2.00;;;;;;;13.54;25.12;100628.27;88021;1279;81421;-69
2022/04/18 11:42:05;;;;;;;3.80;2.20;;;;;;;13.53;25.00;100624.98;87997;1280;99972;-69